createdAt,value
2023-03-19T00:00:36.950Z,10.90
2023-03-19T00:05:39.142Z,11.00
2023-03-19T00:10:42.700Z,11.10
2023-03-19T00:15:44.831Z,11.20
2023-03-19T00:20:46.951Z,11.30
2023-03-19T00:25:50.909Z,11.40
2023-03-19T00:30:53.067Z,11.50
2023-03-19T00:35:55.261Z,11.60
2023-03-19T00:40:58.782Z,11.60
2023-03-19T00:46:01.725Z,11.60
2023-03-19T00:51:04.840Z,11.60
2023-03-19T00:56:09.129Z,11.60
2023-03-19T01:01:14.266Z,11.60
2023-03-19T01:06:16.520Z,11.60
2023-03-19T01:11:20.059Z,11.60
2023-03-19T01:16:22.103Z,11.70
2023-03-19T01:21:24.248Z,11.70
2023-03-19T01:26:27.924Z,11.70
2023-03-19T01:31:30.262Z,11.80
2023-03-19T01:36:32.791Z,11.80
2023-03-19T01:41:36.360Z,11.90
2023-03-19T01:46:39.729Z,11.90
2023-03-19T01:51:45.548Z,11.90
2023-03-19T01:56:53.038Z,12.00
2023-03-19T02:01:59.370Z,12.00
2023-03-19T02:07:03.917Z,12.00
2023-03-19T02:12:09.161Z,12.00
2023-03-19T02:17:11.613Z,12.00
2023-03-19T02:22:15.097Z,12.00
2023-03-19T02:27:18.691Z,12.00
2023-03-19T02:32:20.798Z,12.10
2023-03-19T02:37:26.644Z,12.10
2023-03-19T02:42:30.361Z,12.10
2023-03-19T02:47:32.527Z,12.10
2023-03-19T02:52:35.088Z,12.00
2023-03-19T02:57:38.869Z,12.00
2023-03-19T03:02:41.067Z,12.00
2023-03-19T03:07:43.253Z,12.00
2023-03-19T03:12:46.828Z,12.00
2023-03-19T03:17:48.877Z,12.00
2023-03-19T03:22:51.021Z,12.00
2023-03-19T03:27:54.584Z,12.00
2023-03-19T03:32:56.793Z,12.00
2023-03-19T03:37:58.934Z,12.00
2023-03-19T03:43:02.694Z,12.00
2023-03-19T03:48:05.197Z,12.00
2023-03-19T03:53:07.786Z,12.00
2023-03-19T03:58:11.267Z,12.10
2023-03-19T04:03:13.670Z,12.10
2023-03-19T04:08:15.841Z,12.10
2023-03-19T04:13:19.383Z,12.10
2023-03-19T04:18:21.542Z,12.10
2023-03-19T04:23:23.798Z,12.10
2023-03-19T04:28:27.469Z,12.10
2023-03-19T04:33:30.446Z,12.10
2023-03-19T04:38:32.552Z,12.10
2023-03-19T04:43:36.157Z,12.10
2023-03-19T04:48:38.292Z,12.10
2023-03-19T04:53:40.675Z,12.10
2023-03-19T04:58:44.532Z,12.10
2023-03-19T05:03:46.746Z,12.10
2023-03-19T05:08:48.912Z,12.10
2023-03-19T05:13:52.522Z,12.00
2023-03-19T05:18:54.576Z,12.00
2023-03-19T05:23:56.695Z,12.00
2023-03-19T05:29:00.264Z,12.00
2023-03-19T05:34:02.558Z,11.90
2023-03-19T05:39:04.850Z,11.90
2023-03-19T05:44:08.408Z,11.90
2023-03-19T05:49:10.565Z,11.90
2023-03-19T05:54:12.745Z,12.00
2023-03-19T05:59:16.380Z,12.00
2023-03-19T06:04:18.621Z,12.00
2023-03-19T06:09:21.067Z,12.10
2023-03-19T06:14:25.054Z,12.20
2023-03-19T06:19:27.223Z,12.20
2023-03-19T06:24:29.311Z,12.30
2023-03-19T06:29:32.908Z,12.30
2023-03-19T06:34:35.055Z,12.30
2023-03-19T06:39:37.684Z,12.40
2023-03-19T06:44:41.346Z,12.50
2023-03-19T06:49:43.515Z,12.50
2023-03-19T06:54:45.585Z,12.60
2023-03-19T06:59:49.094Z,12.70
2023-03-19T07:04:51.180Z,12.80
2023-03-19T07:09:53.416Z,12.90
2023-03-19T07:14:56.995Z,13.00
2023-03-19T07:19:59.177Z,13.20
2023-03-19T07:25:01.354Z,13.30
2023-03-19T07:30:05.548Z,13.40
2023-03-19T07:35:08.884Z,13.60
2023-03-19T07:40:11.908Z,13.70
2023-03-19T07:45:15.545Z,13.90
2023-03-19T07:50:17.987Z,14.10
2023-03-19T07:55:20.182Z,14.40
2023-03-19T08:00:24.113Z,14.70
2023-03-19T08:05:26.302Z,14.80
2023-03-19T08:10:28.519Z,14.90
2023-03-19T08:15:32.148Z,15.00
2023-03-19T08:20:34.479Z,15.10
2023-03-19T08:25:36.898Z,15.10
2023-03-19T08:30:40.515Z,15.00
2023-03-19T08:35:42.924Z,14.90
2023-03-19T08:40:45.137Z,14.90
2023-03-19T08:45:49.553Z,14.90
2023-03-19T08:50:54.061Z,14.90
2023-03-19T08:55:57.827Z,14.90
2023-03-19T09:01:05.597Z,15.10
2023-03-19T09:06:10.141Z,15.40
2023-03-19T09:11:13.292Z,15.70
2023-03-19T09:16:19.355Z,16.00
2023-03-19T09:21:22.617Z,16.10
2023-03-19T09:26:24.890Z,16.40
2023-03-19T09:31:29.750Z,16.60
2023-03-19T09:36:32.575Z,16.80
2023-03-19T09:41:45.781Z,16.90
2023-03-19T09:46:53.700Z,17.00
2023-03-19T09:51:58.893Z,16.90
2023-03-19T09:57:01.920Z,16.80
2023-03-19T10:02:32.071Z,16.70
2023-03-19T10:07:58.000Z,16.70
2023-03-19T10:13:13.036Z,16.70
2023-03-19T10:18:21.009Z,16.70
2023-03-19T10:23:40.093Z,16.70
2023-03-19T10:28:44.374Z,16.90
2023-03-19T10:33:54.784Z,17.00
2023-03-19T10:38:56.887Z,17.20
2023-03-19T10:44:02.438Z,17.40
2023-03-19T10:49:11.291Z,17.50
2023-03-19T10:54:22.365Z,17.50
2023-03-19T10:59:26.969Z,17.60
2023-03-19T11:04:30.540Z,17.80
2023-03-19T11:09:37.114Z,17.90
2023-03-19T11:14:44.183Z,18.10
2023-03-19T11:20:05.893Z,18.20
2023-03-19T11:25:17.125Z,18.50
2023-03-19T11:30:22.994Z,18.70
2023-03-19T11:35:32.039Z,18.90
2023-03-19T11:40:43.688Z,19.20
2023-03-19T11:45:56.010Z,19.50
2023-03-19T11:51:08.212Z,19.80
2023-03-19T11:56:45.449Z,20.10
2023-03-19T12:02:15.142Z,20.20
2023-03-19T12:07:26.243Z,20.20
2023-03-19T12:12:36.664Z,20.00
2023-03-19T12:17:53.526Z,19.70
2023-03-19T12:23:05.863Z,19.50
2023-03-19T12:28:16.834Z,19.50
2023-03-19T12:33:33.833Z,19.40
2023-03-19T12:38:40.583Z,19.50
2023-03-19T12:43:54.220Z,20.00
2023-03-19T12:49:01.012Z,20.40
2023-03-19T12:54:10.366Z,20.50
2023-03-19T12:59:20.589Z,20.50
2023-03-19T13:04:27.425Z,20.50
2023-03-19T13:09:37.068Z,20.50
2023-03-19T13:14:49.533Z,20.60
2023-03-19T13:19:53.053Z,20.70
2023-03-19T13:24:59.115Z,20.70
2023-03-19T13:30:08.568Z,20.60
2023-03-19T13:35:36.137Z,20.60
2023-03-19T13:40:49.223Z,20.50
2023-03-19T13:46:03.496Z,20.50
2023-03-19T13:51:22.657Z,20.40
2023-03-19T13:56:30.349Z,20.40
2023-03-19T14:01:41.299Z,20.50
2023-03-19T14:06:47.337Z,20.50
2023-03-19T14:11:50.936Z,20.40
2023-03-19T14:16:54.969Z,20.40
2023-03-19T14:22:10.911Z,20.40
2023-03-19T14:27:20.753Z,20.50
2023-03-19T14:32:31.992Z,20.50
2023-03-19T14:37:46.357Z,20.40
2023-03-19T14:43:00.987Z,20.40
2023-03-19T14:48:29.228Z,20.40
2023-03-19T14:53:39.202Z,20.40
2023-03-19T14:58:54.378Z,20.50
2023-03-19T15:04:00.049Z,20.50
2023-03-19T15:09:02.706Z,20.50
2023-03-19T15:14:24.679Z,20.40
2023-03-19T15:19:29.877Z,20.20
2023-03-19T15:24:32.042Z,20.10
2023-03-19T15:29:37.844Z,19.90
2023-03-19T15:34:40.668Z,19.80
2023-03-19T15:39:48.053Z,19.80
2023-03-19T15:44:52.794Z,19.70
2023-03-19T15:49:59.621Z,19.60
2023-03-19T15:55:03.486Z,19.50
2023-03-19T16:00:10.222Z,19.30
2023-03-19T16:05:24.557Z,19.20
2023-03-19T16:10:36.960Z,19.10
2023-03-19T16:15:44.962Z,18.90
2023-03-19T16:20:57.486Z,18.70
2023-03-19T16:26:12.070Z,18.40
2023-03-19T16:31:24.765Z,18.20
2023-03-19T16:36:31.023Z,18.10
2023-03-19T16:41:33.904Z,17.90
2023-03-19T16:46:40.493Z,17.70
2023-03-19T16:51:42.712Z,17.50
2023-03-19T16:56:44.915Z,17.30
2023-03-19T17:01:48.478Z,17.00
2023-03-19T17:06:50.847Z,16.80
2023-03-19T17:11:53.610Z,16.50
2023-03-19T17:16:57.418Z,16.40
2023-03-19T17:21:59.812Z,16.20
2023-03-19T17:27:03.658Z,16.00
2023-03-19T17:32:16.528Z,15.80
2023-03-19T17:37:18.678Z,15.60
2023-03-19T17:42:22.972Z,15.50
2023-03-19T17:47:26.581Z,15.40
2023-03-19T17:52:29.587Z,15.30
2023-03-19T17:57:31.688Z,15.20
2023-03-19T18:02:35.557Z,15.10
2023-03-19T18:07:37.640Z,15.00
2023-03-19T18:12:39.735Z,14.90
2023-03-19T18:17:48.132Z,14.90
2023-03-19T18:22:50.797Z,14.90
2023-03-19T18:27:53.276Z,14.80
2023-03-19T18:32:59.563Z,14.80
2023-03-19T18:38:01.787Z,14.80
2023-03-19T18:43:04.189Z,14.90
2023-03-19T18:48:23.994Z,14.90
2023-03-19T18:53:26.264Z,14.80
2023-03-19T18:58:29.224Z,14.80
2023-03-19T19:03:34.065Z,14.80
2023-03-19T19:08:36.284Z,14.80
2023-03-19T19:13:53.410Z,14.80
2023-03-19T19:18:59.174Z,14.80
2023-03-19T19:24:01.277Z,14.70
2023-03-19T19:29:04.576Z,14.60
2023-03-19T19:34:10.832Z,14.60
2023-03-19T19:39:13.780Z,14.60
2023-03-19T19:44:19.130Z,14.50
2023-03-19T19:49:22.920Z,14.40
2023-03-19T19:54:25.135Z,14.30
2023-03-19T19:59:27.344Z,14.30
2023-03-19T20:04:30.884Z,14.20
2023-03-19T20:09:34.214Z,14.10
2023-03-19T20:14:45.282Z,14.10
2023-03-19T20:19:51.439Z,14.00
2023-03-19T20:24:53.962Z,14.00
2023-03-19T20:29:56.312Z,14.00
2023-03-19T20:35:00.560Z,13.90
2023-03-19T20:40:02.713Z,13.80
2023-03-19T20:45:05.963Z,13.70
2023-03-19T20:50:17.118Z,13.70
2023-03-19T20:55:21.194Z,13.60
2023-03-19T21:00:26.294Z,13.50
2023-03-19T21:05:35.232Z,13.40
2023-03-19T21:10:39.845Z,13.40
2023-03-19T21:15:42.795Z,13.30
2023-03-19T21:20:49.934Z,13.30
2023-03-19T21:25:52.713Z,13.20
2023-03-19T21:30:54.850Z,13.10
2023-03-19T21:35:59.646Z,13.10
2023-03-19T21:41:05.160Z,13.00
2023-03-19T21:46:23.291Z,13.00
2023-03-19T21:51:28.828Z,12.90
2023-03-19T21:56:34.690Z,12.80
2023-03-19T22:01:36.787Z,12.70
2023-03-19T22:06:40.377Z,12.70
2023-03-19T22:11:43.711Z,12.60
2023-03-19T22:16:46.582Z,12.50
2023-03-19T22:21:50.235Z,12.50
2023-03-19T22:26:57.504Z,12.40
2023-03-19T22:31:59.423Z,12.40
2023-03-19T22:37:22.163Z,12.30
2023-03-19T22:42:25.818Z,12.20
2023-03-19T22:47:28.018Z,12.10
2023-03-19T22:52:31.503Z,12.00
2023-03-19T22:57:33.585Z,11.90
2023-03-19T23:02:35.667Z,11.90
2023-03-19T23:07:39.203Z,11.90
2023-03-19T23:12:41.285Z,11.80
2023-03-19T23:17:44.565Z,11.80
2023-03-19T23:22:48.621Z,11.70
2023-03-19T23:27:51.133Z,11.70
2023-03-19T23:32:53.362Z,11.70
2023-03-19T23:37:57.367Z,11.60
2023-03-19T23:43:00.686Z,11.60
2023-03-19T23:48:05.711Z,11.50
2023-03-19T23:53:18.043Z,11.40
2023-03-19T23:58:20.676Z,11.40
